Time;durP1;ratioP1;P1;durP2;ratioP2;P2;SDS_P1;SDS_P2;PMS_P1;PMS_P2;Temp;Humidity;BMP_temperature;BMP_pressure;BME280_temperature;BME280_humidity;BME280_pressure;Samples;Min_cycle;Max_cycle;Signal;HPM_P1;HPM_P2
2022/03/27 00:00:16;;;;;;;15.50;9.10;;;;;;;5.01;76.47;99611.46;105633;1279;138486;-72
2022/03/27 00:03:05;;;;;;;19.90;8.60;;;;;;;4.93;75.47;99612.36;106001;1278;22645;-72
2022/03/27 00:05:32;;;;;;;;;;;;;;;4.82;73.09;99623.34;105784;1279;138035;-72
2022/03/27 00:07:59;;;;;;;11.90;6.90;;;;;;;4.70;70.12;99623.31;105953;1279;22541;-72
2022/03/27 00:10:27;;;;;;;11.30;5.90;;;;;;;4.59;68.61;99622.06;105620;1279;22546;-72
2022/03/27 00:12:54;;;;;;;9.50;5.60;;;;;;;4.49;66.77;99623.63;105738;1279;137715;-72
2022/03/27 00:15:34;;;;;;;8.50;4.90;;;;;;;4.39;65.64;99629.55;105914;1279;23426;-72
2022/03/27 00:18:15;;;;;;;9.60;5.00;;;;;;;4.29;64.53;99632.89;105828;1279;137149;-72
2022/03/27 00:20:56;;;;;;;9.30;4.40;;;;;;;4.19;64.17;99645.01;106037;1279;24234;-72
2022/03/27 00:23:23;;;;;;;8.60;4.40;;;;;;;4.11;64.05;99651.52;105881;1279;137291;-72
2022/03/27 00:26:04;;;;;;;8.10;4.70;;;;;;;4.01;63.65;99654.06;106079;1277;25453;-72
2022/03/27 00:28:34;;;;;;;9.20;4.80;;;;;;;3.90;64.21;99659.02;105650;1280;138041;-75
2022/03/27 00:31:05;;;;;;;10.90;4.50;;;;;;;3.82;64.47;99662.67;106034;1278;22550;-73
2022/03/27 00:33:47;;;;;;;10.10;4.90;;;;;;;3.70;64.83;99665.05;105879;1280;22628;-73
2022/03/27 00:36:28;;;;;;;11.10;5.50;;;;;;;3.59;65.19;99670.02;105771;1279;137290;-73
2022/03/27 00:39:09;;;;;;;11.20;4.90;;;;;;;3.50;65.32;99674.80;105888;1278;22658;-73
2022/03/27 00:41:51;;;;;;;11.30;5.20;;;;;;;3.40;65.35;99679.58;105662;1279;137335;-73
2022/03/27 00:44:18;;;;;;;10.90;5.30;;;;;;;3.33;65.36;99682.77;105919;1279;24294;-74
2022/03/27 00:46:59;;;;;;;7.90;4.40;;;;;;;3.23;65.08;99686.70;105767;1277;137523;-74
2022/03/27 00:49:40;;;;;;;8.70;3.00;;;;;;;3.15;64.83;99691.48;105915;1279;25507;-76
2022/03/27 00:52:21;;;;;;;9.00;3.00;;;;;;;3.03;63.63;99691.15;106063;1280;22620;-73
2022/03/27 00:55:02;;;;;;;7.40;3.70;;;;;;;2.91;63.03;99694.98;105807;1280;137685;-74
2022/03/27 00:57:30;;;;;;;5.30;3.00;;;;;;;2.80;63.20;99692.02;105963;1279;24270;-75
2022/03/27 00:59:57;;;;;;;6.90;3.40;;;;;;;2.72;63.28;99694.72;105846;1279;137791;-74
2022/03/27 01:02:25;;;;;;;5.70;2.70;;;;;;;2.64;63.28;99693.92;106136;1279;22559;-75
2022/03/27 01:05:11;;;;;;;5.40;2.60;;;;;;;2.54;62.87;99693.85;105941;1279;137793;-73
2022/03/27 01:07:41;;;;;;;7.30;2.70;;;;;;;2.45;62.29;99694.66;105918;1278;22573;-72
2022/03/27 01:10:09;;;;;;;6.30;2.50;;;;;;;2.36;61.85;99700.77;106009;1278;22543;-73
2022/03/27 01:12:42;;;;;;;5.90;2.30;;;;;;;2.27;61.88;99707.79;105966;1280;137267;-75
2022/03/27 01:15:39;;;;;;;6.90;2.40;;;;;;;2.18;61.71;99712.55;105727;1278;22539;-74
2022/03/27 01:18:22;;;;;;;4.60;1.90;;;;;;;2.06;61.54;99710.36;105794;1279;137155;-74
2022/03/27 01:21:02;;;;;;;5.60;1.90;;;;;;;1.97;60.91;99714.67;105918;1279;25327;-74
2022/03/27 01:23:43;;;;;;;2.90;1.80;;;;;;;1.91;60.97;99722.70;105712;1279;137108;-75
2022/03/27 01:26:24;;;;;;;6.10;2.10;;;;;;;1.83;60.99;99718.08;105944;1279;24312;-72
2022/03/27 01:29:06;;;;;;;8.20;2.10;;;;;;;1.76;61.20;99721.16;105879;1278;137265;-74
2022/03/27 01:31:34;;;;;;;5.40;2.40;;;;;;;1.70;61.23;99725.48;105821;1280;22856;-72
2022/03/27 01:34:15;;;;;;;7.10;2.00;;;;;;;1.64;61.37;99728.99;106062;1279;25242;-73
2022/03/27 01:37:01;;;;;;;6.10;2.70;;;;;;;1.57;61.13;99728.60;105828;1279;138220;-72
2022/03/27 01:39:42;;;;;;;5.10;1.90;;;;;;;1.50;61.21;99733.23;105836;1279;29955;-73
2022/03/27 01:42:23;;;;;;;4.10;1.50;;;;;;;1.46;61.20;99735.14;105602;1279;137620;-72
2022/03/27 01:44:50;;;;;;;5.20;1.80;;;;;;;1.42;61.12;99740.89;106246;1278;22571;-73
2022/03/27 01:47:32;;;;;;;7.40;2.40;;;;;;;1.39;61.21;99748.17;105865;1279;137252;-73
2022/03/27 01:50:01;;;;;;;6.00;1.70;;;;;;;1.36;61.39;99749.19;105880;1279;24268;-72
2022/03/27 01:52:42;;;;;;;6.30;1.80;;;;;;;1.32;61.24;99750.63;105953;1279;137685;-72
2022/03/27 01:55:16;;;;;;;5.90;2.00;;;;;;;1.28;61.35;99752.46;105813;1279;24012;-73
2022/03/27 01:57:56;;;;;;;4.80;1.90;;;;;;;1.23;61.19;99756.33;105800;1278;22543;-73
2022/03/27 02:00:37;;;;;;;7.60;2.40;;;;;;;1.20;61.58;99758.66;105824;1280;137236;-73
2022/03/27 02:03:04;;;;;;;8.80;2.00;;;;;;;1.16;61.47;99758.45;105830;1280;24486;-73
2022/03/27 02:05:31;;;;;;;4.40;1.70;;;;;;;1.13;61.38;99760.25;105914;1280;137216;-73
2022/03/27 02:08:12;;;;;;;6.10;2.60;;;;;;;1.07;61.50;99765.40;105800;1280;25250;-73
2022/03/27 02:10:53;;;;;;;7.10;1.70;;;;;;;1.02;61.56;99767.16;105929;1279;137408;-73
2022/03/27 02:13:35;;;;;;;3.00;1.80;;;;;;;0.98;61.63;99771.70;106023;1279;22545;-73
2022/03/27 02:16:16;;;;;;;6.50;2.10;;;;;;;0.94;61.71;99772.80;105991;1279;22576;-73
2022/03/27 02:18:44;;;;;;;5.80;1.90;;;;;;;0.91;61.39;99769.38;105912;1279;137181;-73
2022/03/27 02:21:24;;;;;;;4.90;1.80;;;;;;;0.87;61.79;99766.33;106031;1279;22630;-73
2022/03/27 02:23:52;;;;;;;4.50;1.80;;;;;;;0.83;61.67;99768.55;105723;1279;138154;-73
2022/03/27 02:26:19;;;;;;;4.50;2.10;;;;;;;0.80;61.59;99766.14;105928;1278;22837;-73
2022/03/27 02:28:46;;;;;;;4.10;1.60;;;;;;;0.76;61.73;99769.71;105946;1279;137774;-73
2022/03/27 02:31:13;;;;;;;7.40;2.20;;;;;;;0.72;62.12;99770.34;105967;1280;24220;-73
2022/03/27 02:33:54;;;;;;;6.00;2.10;;;;;;;0.68;62.02;99775.02;105939;1280;22559;-73
2022/03/27 02:36:35;;;;;;;5.30;1.50;;;;;;;0.63;62.04;99773.48;105820;1279;137560;-72
2022/03/27 02:39:03;;;;;;;5.50;2.10;;;;;;;0.59;61.86;99781.03;105974;1280;24306;-72
2022/03/27 02:41:45;;;;;;;4.90;1.80;;;;;;;0.54;62.20;99787.38;106018;1278;137172;-73
2022/03/27 02:44:26;;;;;;;5.80;1.80;;;;;;;0.49;62.31;99794.67;105982;1280;23411;-72
2022/03/27 02:46:53;;;;;;;9.20;2.50;;;;;;;0.44;62.43;99793.19;105808;1280;137578;-72
2022/03/27 02:49:33;;;;;;;9.50;3.60;;;;;;;0.35;62.50;99791.89;105977;1279;22704;-72
2022/03/27 02:52:14;;;;;;;5.90;2.20;;;;;;;0.28;62.83;99796.36;106021;1279;22757;-72
2022/03/27 02:54:55;;;;;;;6.40;2.70;;;;;;;0.19;63.40;99795.96;106036;1279;137289;-72
2022/03/27 02:57:37;;;;;;;7.40;2.60;;;;;;;0.11;63.51;99801.14;105901;1279;22568;-72
2022/03/27 03:00:18;;;;;;;6.20;2.60;;;;;;;0.02;63.59;99801.64;105831;1279;137228;-72
2022/03/27 03:02:45;;;;;;;5.60;2.50;;;;;;;-0.07;63.77;99800.48;105900;1279;22576;-72
2022/03/27 03:05:27;;;;;;;9.50;3.10;;;;;;;-0.16;63.85;99803.81;105893;1279;137874;-71
2022/03/27 03:08:11;;;;;;;7.80;3.20;;;;;;;-0.24;64.09;99806.71;105902;1279;23234;-71
2022/03/27 03:10:39;;;;;;;6.10;2.60;;;;;;;-0.30;64.16;99806.95;106097;1277;24278;-71
2022/03/27 03:13:08;;;;;;;7.90;2.70;;;;;;;-0.36;64.48;99812.23;106096;1280;137460;-71
2022/03/27 03:15:40;;;;;;;5.50;2.50;;;;;;;-0.40;64.55;99814.35;106045;1279;24434;-71
2022/03/27 03:18:21;;;;;;;7.00;2.70;;;;;;;-0.42;64.58;99809.93;105818;1279;138768;-71
2022/03/27 03:21:03;;;;;;;4.80;2.20;;;;;;;-0.41;64.50;99810.98;105871;1278;22551;-71
2022/03/27 03:23:30;;;;;;;11.00;2.50;;;;;;;-0.40;64.54;99807.98;105721;1280;137506;-70
2022/03/27 03:25:57;;;;;;;5.70;2.90;;;;;;;-0.39;64.96;99805.90;105868;1278;24293;-70
2022/03/27 03:28:24;;;;;;;9.70;2.60;;;;;;;-0.39;64.79;99803.77;105880;1278;22541;-70
2022/03/27 03:31:09;;;;;;;10.50;3.00;;;;;;;-0.40;64.81;99806.19;105976;1278;137351;-70
2022/03/27 03:33:50;;;;;;;9.60;3.60;;;;;;;-0.42;64.91;99803.03;105958;1279;22563;-71
2022/03/27 03:36:31;;;;;;;11.80;3.80;;;;;;;-0.45;65.09;99801.85;105960;1279;137463;-70
2022/03/27 03:38:57;;;;;;;11.90;4.10;;;;;;;-0.48;65.18;99807.14;105979;1279;22562;-70
2022/03/27 03:41:24;;;;;;;12.90;4.50;;;;;;;-0.55;65.28;99808.30;105733;1280;137740;-70
2022/03/27 03:43:52;;;;;;;11.90;5.00;;;;;;;-0.64;65.32;99804.80;105796;1280;22576;-70
2022/03/27 03:46:19;;;;;;;7.80;3.60;;;;;;;-0.70;65.65;99811.64;105947;1280;25429;-70
2022/03/27 03:48:46;;;;;;;13.90;4.00;;;;;;;-0.78;65.76;99812.30;105861;1279;137717;-70
2022/03/27 03:51:27;;;;;;;10.40;3.40;;;;;;;-0.83;65.92;99815.79;105925;1279;25475;-70
2022/03/27 03:53:54;;;;;;;7.10;2.90;;;;;;;-0.88;66.09;99815.54;105794;1277;137951;-70
2022/03/27 03:56:21;;;;;;;10.40;3.60;;;;;;;-0.92;66.35;99825.34;105821;1279;22561;-70
2022/03/27 03:58:48;;;;;;;7.70;2.60;;;;;;;-0.96;66.46;99829.82;105790;1279;137565;-70
2022/03/27 04:01:15;;;;;;;12.60;3.30;;;;;;;-0.99;66.45;99831.34;105995;1277;25438;-70
2022/03/27 04:03:42;;;;;;;11.90;3.40;;;;;;;-1.01;66.84;99830.80;105934;1278;22553;-70
2022/03/27 04:06:09;;;;;;;10.70;2.70;;;;;;;-1.04;66.92;99835.27;105820;1278;138477;-70
2022/03/27 04:08:36;;;;;;;5.90;3.00;;;;;;;-1.05;67.04;99838.75;105982;1278;26611;-70
2022/03/27 04:11:04;;;;;;;9.00;3.30;;;;;;;-1.06;67.02;99839.96;105777;1279;137507;-70
2022/03/27 04:13:32;;;;;;;11.50;3.00;;;;;;;-1.07;67.24;99837.88;106065;1279;25335;-70
2022/03/27 04:16:02;;;;;;;5.70;2.80;;;;;;;-1.09;67.28;99835.39;105866;1279;24260;-70
2022/03/27 04:18:29;;;;;;;14.00;3.30;;;;;;;-1.10;67.42;99837.70;105653;1279;137763;-70
2022/03/27 04:20:56;;;;;;;8.40;3.10;;;;;;;-1.15;67.45;99836.79;105861;1279;25491;-70
2022/03/27 04:23:23;;;;;;;10.70;3.00;;;;;;;-1.18;67.51;99833.52;105816;1277;137524;-70
2022/03/27 04:25:50;;;;;;;5.00;2.20;;;;;;;-1.20;67.54;99838.51;105990;1278;22636;-70
2022/03/27 04:28:17;;;;;;;5.50;1.90;;;;;;;-1.21;67.55;99843.20;105812;1279;22545;-71
2022/03/27 04:30:44;;;;;;;6.90;2.00;;;;;;;-1.20;67.54;99847.60;105568;1278;137886;-71
2022/03/27 04:33:10;;;;;;;4.80;2.10;;;;;;;-1.19;67.68;99850.71;105705;1279;24386;-71
2022/03/27 04:35:51;;;;;;;4.50;1.70;;;;;;;-1.19;67.72;99853.92;105782;1278;138508;-71
2022/03/27 04:38:18;;;;;;;6.90;1.60;;;;;;;-1.18;67.69;99858.10;105880;1278;22577;-71
2022/03/27 04:40:59;;;;;;;8.50;1.50;;;;;;;-1.18;67.86;99859.90;105775;1279;137609;-71
2022/03/27 04:43:28;;;;;;;4.80;1.80;;;;;;;-1.19;67.80;99861.45;105661;1278;22587;-71
2022/03/27 04:46:09;;;;;;;5.00;2.30;;;;;;;-1.23;67.88;99857.27;106126;1278;26489;-71
2022/03/27 04:48:50;;;;;;;4.50;2.00;;;;;;;-1.25;67.94;99857.81;105868;1278;138172;-71
2022/03/27 04:51:31;;;;;;;9.40;2.80;;;;;;;-1.24;68.04;99859.76;105869;1278;25430;-74
2022/03/27 04:54:12;;;;;;;7.20;2.70;;;;;;;-1.23;68.32;99863.34;105793;1280;137999;-72
2022/03/27 04:56:52;;;;;;;9.40;2.90;;;;;;;-1.19;68.44;99868.42;105755;1280;25341;-71
2022/03/27 04:59:33;;;;;;;5.60;2.60;;;;;;;-1.16;68.60;99869.89;105822;1278;137939;-72
2022/03/27 05:02:01;;;;;;;9.50;3.00;;;;;;;-1.13;68.67;99871.94;106171;1277;22555;-72
2022/03/27 05:04:42;;;;;;;7.60;2.20;;;;;;;-1.08;68.74;99873.16;105932;1280;25308;-72
2022/03/27 05:07:09;;;;;;;7.50;2.00;;;;;;;-1.05;68.59;99872.18;105929;1278;137752;-72
2022/03/27 05:09:36;;;;;;;9.30;2.50;;;;;;;-1.03;68.53;99877.88;106088;1277;22541;-72
2022/03/27 05:12:17;;;;;;;6.90;2.30;;;;;;;-1.00;68.58;99881.69;105734;1280;137889;-72
2022/03/27 05:14:44;;;;;;;8.90;2.60;;;;;;;-0.99;68.48;99886.54;105925;1278;22567;-72
2022/03/27 05:17:11;;;;;;;6.10;1.90;;;;;;;-0.97;68.28;99882.68;105825;1279;137698;-72
2022/03/27 05:19:52;;;;;;;5.70;1.70;;;;;;;-0.97;68.57;99884.27;105767;1280;22569;-72
2022/03/27 05:22:32;;;;;;;4.90;2.30;;;;;;;-0.96;68.46;99888.61;105875;1279;23945;-72
2022/03/27 05:25:15;;;;;;;7.80;2.20;;;;;;;-0.95;68.47;99888.55;105706;1279;137426;-72
2022/03/27 05:27:58;;;;;;;5.30;1.80;;;;;;;-0.92;68.65;99894.54;105811;1281;22730;-72
2022/03/27 05:30:27;;;;;;;10.40;2.40;;;;;;;-0.90;68.76;99896.52;105678;1281;137518;-72
2022/03/27 05:32:54;;;;;;;5.50;2.60;;;;;;;-0.87;68.64;99892.51;105884;1278;22554;-72
2022/03/27 05:35:36;;;;;;;8.50;2.40;;;;;;;-0.81;68.88;99896.20;105797;1278;138269;-72
2022/03/27 05:38:17;;;;;;;10.60;2.40;;;;;;;-0.73;68.73;99897.45;105822;1282;23650;-72
2022/03/27 05:40:58;;;;;;;8.40;2.70;;;;;;;-0.65;68.85;99897.48;105667;1278;138308;-72
2022/03/27 05:43:39;;;;;;;8.10;2.70;;;;;;;-0.57;68.69;99903.52;105764;1277;23911;-72
2022/03/27 05:46:20;;;;;;;7.50;2.50;;;;;;;-0.49;68.64;99907.30;105752;1280;25408;-72
2022/03/27 05:49:02;;;;;;;9.30;2.10;;;;;;;-0.42;68.61;99913.23;105743;1281;138355;-72
2022/03/27 05:51:42;;;;;;;5.10;2.00;;;;;;;-0.33;68.78;99910.88;105720;1278;22710;-71
2022/03/27 05:54:23;;;;;;;10.20;2.90;;;;;;;-0.22;68.77;99917.37;105627;1278;137948;-72
2022/03/27 05:56:50;;;;;;;8.80;2.50;;;;;;;-0.12;68.66;99923.95;105770;1281;22630;-72
2022/03/27 05:59:31;;;;;;;5.70;2.20;;;;;;;-0.01;68.61;99925.81;105585;1278;137529;-72
2022/03/27 06:01:58;;;;;;;5.50;2.30;;;;;;;0.09;68.40;99933.07;105553;1278;22557;-71
2022/03/27 06:04:40;;;;;;;6.20;1.90;;;;;;;0.20;68.30;99935.52;105574;1280;24360;-72
2022/03/27 06:07:21;;;;;;;8.00;2.90;;;;;;;0.31;67.92;99937.13;105731;1280;137807;-71
2022/03/27 06:10:02;;;;;;;5.30;2.10;;;;;;;0.44;67.98;99940.40;105872;1281;22543;-71
2022/03/27 06:12:46;;;;;;;7.40;2.40;;;;;;;0.60;67.58;99940.37;105628;1279;137462;-71
2022/03/27 06:15:28;;;;;;;6.50;2.80;;;;;;;0.75;67.51;99942.82;105690;1278;30593;-71
2022/03/27 06:17:57;;;;;;;14.30;3.60;;;;;;;0.87;67.03;99941.01;105698;1281;137199;-71
2022/03/27 06:20:39;;;;;;;9.30;3.10;;;;;;;1.01;66.64;99945.05;105934;1278;24240;-71
2022/03/27 06:23:06;;;;;;;7.70;2.80;;;;;;;1.13;66.54;99945.32;105680;1281;137268;-72
2022/03/27 06:25:34;;;;;;;6.30;2.30;;;;;;;1.26;66.32;99942.64;105748;1278;22543;-71
2022/03/27 06:28:02;;;;;;;6.40;1.80;;;;;;;1.39;65.94;99943.23;105909;1278;22546;-71
2022/03/27 06:30:30;;;;;;;8.00;2.40;;;;;;;1.53;65.02;99945.95;105822;1278;137408;-71
2022/03/27 06:33:12;;;;;;;5.30;1.70;;;;;;;1.67;64.53;99942.23;105905;1278;24224;-71
2022/03/27 06:35:39;;;;;;;4.60;1.60;;;;;;;1.80;63.78;99948.14;105649;1281;137597;-71
2022/03/27 06:38:21;;;;;;;5.10;2.00;;;;;;;1.94;62.86;99944.08;105768;1280;25316;-71
2022/03/27 06:41:03;;;;;;;6.40;1.70;;;;;;;2.08;62.30;99944.51;105597;1281;137251;-71
2022/03/27 06:43:44;;;;;;;5.60;1.40;;;;;;;2.22;61.49;99952.40;105818;1281;25543;-71
2022/03/27 06:46:25;;;;;;;4.80;1.80;;;;;;;2.35;60.86;99954.16;105876;1278;22851;-71
2022/03/27 06:48:52;;;;;;;5.40;1.50;;;;;;;2.46;60.40;99956.06;105663;1278;137294;-71
2022/03/27 06:51:34;;;;;;;3.70;1.50;;;;;;;2.57;59.91;99952.66;105892;1278;25311;-71
2022/03/27 06:54:14;;;;;;;2.10;0.80;;;;;;;2.68;56.84;99952.44;105945;1277;137149;-71
2022/03/27 06:56:56;;;;;;;2.00;0.60;;;;;;;2.78;53.90;99952.08;105748;1281;22560;-71
2022/03/27 07:05:22;;;;;;;;;;;;;;;3.09;49.32;99960.07;105735;1278;137715;-71
2022/03/27 07:08:05;;;;;;;1.50;0.60;;;;;;;3.18;49.29;99963.61;105818;1281;22717;-71
2022/03/27 07:10:47;;;;;;;1.10;0.40;;;;;;;3.27;48.45;99967.13;105833;1281;22707;-71
2022/03/27 07:13:18;;;;;;;2.00;0.30;;;;;;;3.33;46.99;99966.89;105757;1279;137532;-71
2022/03/27 07:15:46;;;;;;;3.30;0.60;;;;;;;3.37;46.37;99965.58;105676;1277;24232;-71
2022/03/27 07:18:29;;;;;;;5.60;1.10;;;;;;;3.41;47.09;99966.73;105708;1281;137211;-71
2022/03/27 07:21:10;;;;;;;2.50;0.60;;;;;;;3.49;47.41;99959.70;105709;1281;23228;-71
2022/03/27 07:23:51;;;;;;;1.40;0.40;;;;;;;3.56;46.57;99965.92;105790;1281;137289;-71
2022/03/27 07:26:32;;;;;;;1.10;0.50;;;;;;;3.62;46.83;99967.25;106089;1278;22765;-71
2022/03/27 07:29:13;;;;;;;2.00;0.50;;;;;;;3.70;46.93;99971.77;105624;1281;137993;-71
2022/03/27 07:31:54;;;;;;;1.50;0.70;;;;;;;3.78;46.71;99976.33;105643;1277;25373;-74
2022/03/27 07:34:21;;;;;;;3.90;1.00;;;;;;;3.84;45.62;99978.95;105804;1278;25603;-71
2022/03/27 07:37:03;;;;;;;3.00;0.60;;;;;;;3.90;44.47;99986.40;105627;1278;137116;-72
2022/03/27 07:39:44;;;;;;;1.10;0.50;;;;;;;3.93;44.23;99992.27;105704;1279;23319;-72
2022/03/27 07:42:13;;;;;;;2.30;0.70;;;;;;;3.96;44.24;99993.61;105683;1281;137220;-72
2022/03/27 07:44:54;;;;;;;1.30;0.40;;;;;;;4.01;43.84;99991.89;105647;1281;22551;-72
2022/03/27 07:47:36;;;;;;;0.80;0.50;;;;;;;4.06;41.45;99995.48;105638;1281;137339;-73
2022/03/27 07:50:04;;;;;;;1.20;0.40;;;;;;;4.12;40.64;99997.86;105745;1280;22582;-73
2022/03/27 07:52:46;;;;;;;1.80;0.40;;;;;;;4.19;40.07;99993.98;105876;1280;25423;-75
2022/03/27 07:55:16;;;;;;;2.80;0.40;;;;;;;4.34;40.94;99995.13;106363;1280;137421;-73
2022/03/27 07:57:44;;;;;;;3.00;0.50;;;;;;;4.52;39.63;99995.89;106155;1277;24391;-73
2022/03/27 08:00:27;;;;;;;1.40;0.50;;;;;;;4.67;38.82;99996.56;105940;1279;138126;-73
2022/03/27 08:03:08;;;;;;;1.80;0.50;;;;;;;4.79;37.68;99996.39;105930;1279;22611;-73
2022/03/27 08:05:35;;;;;;;1.60;0.30;;;;;;;4.83;36.88;99992.67;106237;1279;137695;-73
2022/03/27 08:08:02;;;;;;;2.60;0.50;;;;;;;4.88;36.53;99989.02;106323;1279;22656;-73
2022/03/27 08:10:29;;;;;;;1.90;0.90;;;;;;;4.95;36.42;99995.48;106304;1279;25326;-73
2022/03/27 08:12:57;;;;;;;1.60;0.40;;;;;;;5.01;36.35;99999.08;105910;1281;137398;-73
2022/03/27 08:15:24;;;;;;;3.00;0.50;;;;;;;5.07;36.68;99998.42;105827;1279;23989;-73
2022/03/27 08:18:05;;;;;;;3.00;0.60;;;;;;;5.13;35.29;99994.20;106140;1280;137147;-72
2022/03/27 08:20:47;;;;;;;3.20;0.50;;;;;;;5.16;35.05;99989.73;106205;1280;24309;-72
2022/03/27 08:23:17;;;;;;;1.10;0.60;;;;;;;5.20;35.32;99991.64;105853;1280;138052;-72
2022/03/27 08:28:31;;;;;;;2.90;0.40;;;;;;;5.34;35.52;99991.65;105850;1279;30365;-72
2022/03/27 08:31:11;;;;;;;4.50;0.40;;;;;;;5.42;35.13;99988.21;105942;1281;137442;-72
2022/03/27 08:33:38;;;;;;;2.30;0.60;;;;;;;5.49;35.05;99983.09;106030;1279;25599;-72
2022/03/27 08:36:05;;;;;;;1.10;0.40;;;;;;;5.57;35.24;99980.01;105899;1282;137710;-72
2022/03/27 08:38:46;;;;;;;1.90;0.40;;;;;;;5.67;34.88;99979.88;106011;1279;30349;-72
2022/03/27 08:41:16;;;;;;;2.00;0.40;;;;;;;5.73;35.23;99980.36;106027;1279;137627;-74
2022/03/27 08:43:44;;;;;;;1.60;0.40;;;;;;;5.81;34.67;99980.36;106489;1279;25215;-72
2022/03/27 08:46:12;;;;;;;1.40;0.60;;;;;;;5.85;34.62;99980.46;106370;1281;22516;-72
2022/03/27 08:48:44;;;;;;;1.50;0.50;;;;;;;5.93;34.63;99980.25;105776;1280;137041;-72
2022/03/27 08:51:43;;;;;;;4.20;0.50;;;;;;;6.01;34.60;99977.04;106106;1279;22574;-73
2022/03/27 08:54:32;;;;;;;2.10;0.40;;;;;;;6.12;34.49;99971.66;105741;1280;137868;-71
2022/03/27 08:57:14;;;;;;;1.30;0.60;;;;;;;6.22;34.83;99967.37;106015;1280;23795;-74
2022/03/27 08:59:43;;;;;;;2.20;0.80;;;;;;;6.33;34.45;99967.53;105938;1279;137845;-72
2022/03/27 09:02:13;;;;;;;3.00;0.70;;;;;;;6.42;33.30;99965.86;106131;1279;22652;-72
2022/03/27 09:04:55;;;;;;;0.90;0.40;;;;;;;6.49;33.42;99962.23;105968;1279;23502;-72
2022/03/27 09:07:36;;;;;;;0.80;0.30;;;;;;;6.52;32.34;99961.67;106070;1279;136996;-72
2022/03/27 09:10:18;;;;;;;1.10;0.50;;;;;;;6.56;32.97;99957.82;105981;1280;25328;-73
2022/03/27 09:13:00;;;;;;;1.80;0.40;;;;;;;6.66;32.45;99955.49;105962;1279;137373;-73
2022/03/27 09:15:43;;;;;;;1.50;0.50;;;;;;;6.70;32.03;99953.77;105878;1279;22554;-73
2022/03/27 09:18:14;;;;;;;2.00;0.40;;;;;;;6.78;31.48;99959.34;105936;1279;137265;-74
2022/03/27 09:20:55;;;;;;;2.00;0.70;;;;;;;6.85;32.11;99949.38;105893;1280;23234;-74
2022/03/27 09:23:36;;;;;;;3.10;0.40;;;;;;;6.97;31.86;99946.44;105759;1279;137748;-73
2022/03/27 09:26:17;;;;;;;1.10;0.70;;;;;;;7.09;31.77;99935.83;105810;1280;22576;-73
2022/03/27 09:29:10;;;;;;;1.30;0.40;;;;;;;7.19;31.20;99932.35;105821;1280;24318;-72
2022/03/27 09:31:58;;;;;;;0.80;0.30;;;;;;;7.30;31.93;99930.34;105976;1279;137509;-72
2022/03/27 09:35:05;;;;;;;1.60;0.50;;;;;;;7.42;30.74;99937.00;106185;1279;25317;-71
2022/03/27 09:37:37;;;;;;;1.40;0.30;;;;;;;7.51;30.02;99947.87;106023;1279;137124;-72
2022/03/27 09:40:06;;;;;;;1.30;0.40;;;;;;;7.58;29.50;99945.00;106397;1279;30363;-71
2022/03/27 09:43:11;;;;;;;1.70;0.70;;;;;;;7.73;29.67;99949.15;105898;1279;137625;-71
2022/03/27 09:46:02;;;;;;;0.90;0.40;;;;;;;7.82;29.73;99949.98;105799;1280;22607;-72
2022/03/27 09:48:56;;;;;;;0.80;0.30;;;;;;;7.87;28.76;99946.56;105775;1279;137366;-72
2022/03/27 09:52:10;;;;;;;1.30;0.40;;;;;;;7.99;29.26;99949.21;106001;1279;24275;-72
2022/03/27 09:55:08;;;;;;;2.20;0.50;;;;;;;8.07;29.50;99931.02;105676;1279;137248;-72
2022/03/27 09:57:57;;;;;;;1.80;0.30;;;;;;;8.21;29.20;99941.35;105801;1279;22580;-73
2022/03/27 10:00:38;;;;;;;1.00;0.60;;;;;;;8.26;28.45;99942.20;105772;1279;137315;-72
2022/03/27 10:03:19;;;;;;;2.10;0.40;;;;;;;8.24;28.21;99943.14;105927;1279;22569;-72
2022/03/27 10:06:02;;;;;;;1.40;0.50;;;;;;;8.26;29.29;99941.28;105897;1279;137520;-73
2022/03/27 10:08:30;;;;;;;0.80;0.40;;;;;;;8.30;28.24;99941.31;106188;1280;22556;-73
2022/03/27 10:11:11;;;;;;;3.90;0.60;;;;;;;8.25;28.61;99939.39;106092;1279;32501;-73
2022/03/27 10:13:38;;;;;;;1.20;0.40;;;;;;;8.30;28.45;99932.80;105663;1280;137212;-72
2022/03/27 10:16:06;;;;;;;2.00;0.70;;;;;;;8.34;28.29;99930.76;106093;1279;26228;-73
2022/03/27 10:18:47;;;;;;;2.30;0.50;;;;;;;8.39;28.42;99919.19;105893;1279;137530;-73
2022/03/27 10:21:15;;;;;;;1.20;0.60;;;;;;;8.44;28.71;99916.09;106082;1279;24293;-72
2022/03/27 10:23:46;;;;;;;2.40;0.40;;;;;;;8.52;28.70;99916.26;106086;1279;138324;-73
2022/03/27 10:26:13;;;;;;;2.30;0.50;;;;;;;8.60;29.12;99913.38;106238;1279;25314;-73
2022/03/27 10:28:42;;;;;;;3.30;0.60;;;;;;;8.74;29.36;99907.94;106048;1279;22672;-73
2022/03/27 10:31:10;;;;;;;0.90;0.40;;;;;;;8.87;28.90;99905.95;105960;1280;137486;-73
2022/03/27 10:33:51;;;;;;;1.10;0.50;;;;;;;8.99;29.19;99907.08;105886;1280;22687;-72
2022/03/27 10:36:27;;;;;;;1.10;0.80;;;;;;;9.09;29.04;99904.13;106202;1280;137149;-73
2022/03/27 10:39:16;;;;;;;2.10;0.50;;;;;;;9.14;28.69;99901.64;106084;1279;22707;-73
2022/03/27 10:42:20;;;;;;;1.50;0.50;;;;;;;9.19;29.01;99892.15;105973;1278;138206;-72
2022/03/27 10:45:19;;;;;;;2.70;0.60;;;;;;;9.26;29.23;99892.45;105944;1279;22607;-72
2022/03/27 10:48:09;;;;;;;1.80;0.70;;;;;;;9.40;29.18;99889.36;105968;1278;137525;-72
2022/03/27 10:50:55;;;;;;;1.30;0.50;;;;;;;9.48;28.15;99889.58;105916;1277;23276;-73
2022/03/27 10:53:36;;;;;;;1.70;0.80;;;;;;;9.45;28.20;99885.41;105748;1278;139787;-72
2022/03/27 10:56:42;;;;;;;2.70;0.70;;;;;;;9.54;28.43;99882.65;105723;1280;22551;-72
2022/03/27 10:59:12;;;;;;;2.10;0.40;;;;;;;9.71;28.57;99879.15;105773;1280;25371;-72
2022/03/27 11:01:55;;;;;;;1.10;0.60;;;;;;;9.83;28.15;99872.41;105528;1278;342027;-72
2022/03/27 11:04:43;;;;;;;3.40;0.80;;;;;;;9.92;28.36;99869.67;105791;1278;22543;-72
2022/03/27 11:07:24;;;;;;;2.70;0.70;;;;;;;10.05;28.09;99865.50;105754;1278;137966;-72
2022/03/27 11:10:44;;;;;;;1.80;0.60;;;;;;;10.17;27.83;99868.80;105853;1278;22635;-72
2022/03/27 11:13:36;;;;;;;3.00;0.90;;;;;;;10.14;27.52;99865.35;105598;1279;137645;-72
2022/03/27 11:16:14;;;;;;;1.40;0.50;;;;;;;10.12;26.95;99858.40;105868;1277;22562;-73
2022/03/27 11:18:55;;;;;;;2.30;0.60;;;;;;;10.19;27.06;99850.79;105882;1279;137567;-72
2022/03/27 11:21:39;;;;;;;3.00;0.60;;;;;;;10.21;27.20;99849.23;105705;1279;22613;-72
2022/03/27 11:24:07;;;;;;;2.30;0.70;;;;;;;10.30;27.71;99843.34;105391;1278;137836;-72
2022/03/27 11:26:50;;;;;;;2.70;0.80;;;;;;;10.44;28.12;99840.27;105503;1279;25251;-75
2022/03/27 11:29:17;;;;;;;1.70;0.70;;;;;;;10.65;28.45;99830.36;105620;1277;22554;-72
2022/03/27 11:31:43;;;;;;;1.30;0.60;;;;;;;10.81;28.18;99833.81;105886;1277;137880;-72
2022/03/27 11:34:17;;;;;;;1.90;0.70;;;;;;;10.93;27.65;99831.40;105834;1278;25002;-72
2022/03/27 11:37:22;;;;;;;1.50;0.80;;;;;;;10.89;26.36;99824.75;105417;1280;138005;-72
2022/03/27 11:40:03;;;;;;;1.40;0.60;;;;;;;10.72;26.21;99820.09;105546;1279;23379;-72
2022/03/27 11:42:44;;;;;;;2.50;0.70;;;;;;;10.66;26.46;99817.37;105666;1280;137461;-72
2022/03/27 11:45:21;;;;;;;3.40;0.80;;;;;;;10.63;26.32;99817.29;106016;1277;22658;-72
2022/03/27 11:47:51;;;;;;;2.10;0.60;;;;;;;10.71;26.78;99809.73;105676;1279;138185;-72
2022/03/27 11:50:32;;;;;;;2.00;0.50;;;;;;;10.77;26.18;99811.23;105454;1279;22668;-72
2022/03/27 11:53:01;;;;;;;1.10;0.50;;;;;;;10.76;25.51;99810.80;105870;1277;22574;-72
2022/03/27 11:55:31;;;;;;;2.60;0.70;;;;;;;10.64;25.45;99809.29;105752;1279;137570;-72
2022/03/27 11:57:59;;;;;;;1.30;0.60;;;;;;;10.58;26.04;99804.34;105731;1279;22582;-72
2022/03/27 12:00:36;;;;;;;2.30;0.70;;;;;;;10.62;26.04;99802.20;105706;1279;137734;-72
2022/03/27 12:03:22;;;;;;;1.60;0.70;;;;;;;10.71;26.57;99797.27;105828;1277;22602;-72
2022/03/27 12:05:50;;;;;;;2.30;0.70;;;;;;;10.79;26.39;99790.17;105975;1278;137731;-72
2022/03/27 12:08:32;;;;;;;1.20;0.40;;;;;;;10.99;26.75;99786.94;105943;1278;22498;-72
2022/03/27 12:11:04;;;;;;;2.80;1.10;;;;;;;11.11;25.87;99783.23;106094;1278;25696;-72
2022/03/27 12:13:50;;;;;;;1.80;0.40;;;;;;;11.14;25.77;99776.15;105895;1278;137616;-72
2022/03/27 12:16:32;;;;;;;1.70;0.80;;;;;;;11.21;26.13;99777.27;105710;1281;24269;-72
2022/03/27 12:19:12;;;;;;;2.70;0.80;;;;;;;11.28;25.48;99774.70;105753;1279;137573;-72